sensor_id;sensor_type;location;lat;lon;timestamp;pressure;altitude;pressure_sealevel;temperature;humidity
41467;BME280;72625;53.700;19.958;2023-12-20T00:04:53;99089.23;;;6.38;100.00
41467;BME280;72625;53.700;19.958;2023-12-20T00:09:57;99085.95;;;6.40;100.00
41467;BME280;72625;53.700;19.958;2023-12-20T00:15:00;99088.70;;;6.40;100.00
41467;BME280;72625;53.700;19.958;2023-12-20T00:20:04;99082.58;;;6.40;100.00
41467;BME280;72625;53.700;19.958;2023-12-20T00:25:09;99073.55;;;6.41;100.00
41467;BME280;72625;53.700;19.958;2023-12-20T00:30:12;99070.63;;;6.42;100.00
41467;BME280;72625;53.700;19.958;2023-12-20T00:35:16;99073.88;;;6.42;100.00
41467;BME280;72625;53.700;19.958;2023-12-20T00:40:20;99074.52;;;6.42;100.00
41467;BME280;72625;53.700;19.958;2023-12-20T00:45:24;99076.55;;;6.42;100.00
41467;BME280;72625;53.700;19.958;2023-12-20T00:50:27;99076.71;;;6.42;100.00
41467;BME280;72625;53.700;19.958;2023-12-20T00:55:32;99071.23;;;6.44;100.00
41467;BME280;72625;53.700;19.958;2023-12-20T01:00:35;99068.77;;;6.43;100.00
41467;BME280;72625;53.700;19.958;2023-12-20T01:05:39;99069.43;;;6.44;100.00
41467;BME280;72625;53.700;19.958;2023-12-20T01:10:43;99064.88;;;6.47;100.00
41467;BME280;72625;53.700;19.958;2023-12-20T01:15:46;99058.58;;;6.45;100.00
41467;BME280;72625;53.700;19.958;2023-12-20T01:20:52;99051.22;;;6.46;100.00
41467;BME280;72625;53.700;19.958;2023-12-20T01:25:55;99047.01;;;6.46;100.00
41467;BME280;72625;53.700;19.958;2023-12-20T01:30:59;99039.23;;;6.48;100.00
41467;BME280;72625;53.700;19.958;2023-12-20T01:36:03;99020.19;;;6.47;100.00
41467;BME280;72625;53.700;19.958;2023-12-20T01:41:06;99014.42;;;6.47;100.00
41467;BME280;72625;53.700;19.958;2023-12-20T01:46:10;99009.77;;;6.48;100.00
41467;BME280;72625;53.700;19.958;2023-12-20T01:51:15;99007.61;;;6.47;100.00
41467;BME280;72625;53.700;19.958;2023-12-20T01:56:19;99000.54;;;6.47;100.00
41467;BME280;72625;53.700;19.958;2023-12-20T02:01:24;98997.94;;;6.47;100.00
41467;BME280;72625;53.700;19.958;2023-12-20T02:06:33;98992.52;;;6.49;100.00
41467;BME280;72625;53.700;19.958;2023-12-20T02:11:37;98987.77;;;6.50;100.00
41467;BME280;72625;53.700;19.958;2023-12-20T02:16:41;98979.43;;;6.51;100.00
41467;BME280;72625;53.700;19.958;2023-12-20T02:21:44;98976.77;;;6.52;100.00
41467;BME280;72625;53.700;19.958;2023-12-20T02:26:48;98972.58;;;6.51;100.00
41467;BME280;72625;53.700;19.958;2023-12-20T02:31:51;98965.55;;;6.53;100.00
41467;BME280;72625;53.700;19.958;2023-12-20T02:36:54;98966.78;;;6.55;100.00
41467;BME280;72625;53.700;19.958;2023-12-20T02:41:58;98970.40;;;6.57;100.00
41467;BME280;72625;53.700;19.958;2023-12-20T02:47:02;98972.53;;;6.59;100.00
41467;BME280;72625;53.700;19.958;2023-12-20T02:52:05;98974.08;;;6.59;100.00
41467;BME280;72625;53.700;19.958;2023-12-20T02:57:09;98966.14;;;6.60;100.00
41467;BME280;72625;53.700;19.958;2023-12-20T03:02:12;98963.27;;;6.60;100.00
41467;BME280;72625;53.700;19.958;2023-12-20T03:07:16;98963.85;;;6.62;100.00
41467;BME280;72625;53.700;19.958;2023-12-20T03:12:19;98960.98;;;6.63;100.00
41467;BME280;72625;53.700;19.958;2023-12-20T03:17:23;98961.30;;;6.61;100.00
41467;BME280;72625;53.700;19.958;2023-12-20T03:22:26;98961.97;;;6.60;100.00
41467;BME280;72625;53.700;19.958;2023-12-20T03:27:30;98955.79;;;6.62;100.00
41467;BME280;72625;53.700;19.958;2023-12-20T03:32:33;98956.76;;;6.63;100.00
41467;BME280;72625;53.700;19.958;2023-12-20T03:37:37;98954.61;;;6.65;100.00
41467;BME280;72625;53.700;19.958;2023-12-20T03:42:40;98951.59;;;6.66;100.00
41467;BME280;72625;53.700;19.958;2023-12-20T03:47:44;98950.45;;;6.65;100.00
41467;BME280;72625;53.700;19.958;2023-12-20T03:52:48;98960.41;;;6.66;100.00
41467;BME280;72625;53.700;19.958;2023-12-20T03:57:51;98959.30;;;6.68;100.00
41467;BME280;72625;53.700;19.958;2023-12-20T04:02:54;98971.09;;;6.70;100.00
41467;BME280;72625;53.700;19.958;2023-12-20T04:08:01;98978.88;;;6.72;100.00
41467;BME280;72625;53.700;19.958;2023-12-20T04:13:05;98975.58;;;6.74;100.00
41467;BME280;72625;53.700;19.958;2023-12-20T04:18:08;98971.70;;;6.73;100.00
41467;BME280;72625;53.700;19.958;2023-12-20T04:23:11;98970.05;;;6.75;100.00
41467;BME280;72625;53.700;19.958;2023-12-20T04:28:15;98965.33;;;6.76;100.00
41467;BME280;72625;53.700;19.958;2023-12-20T04:33:19;98967.17;;;6.68;100.00
41467;BME280;72625;53.700;19.958;2023-12-20T04:38:22;98962.55;;;6.64;100.00
41467;BME280;72625;53.700;19.958;2023-12-20T04:43:25;98962.72;;;6.62;100.00
41467;BME280;72625;53.700;19.958;2023-12-20T04:48:29;98959.95;;;6.58;100.00
41467;BME280;72625;53.700;19.958;2023-12-20T04:53:32;98959.52;;;6.55;100.00
41467;BME280;72625;53.700;19.958;2023-12-20T04:58:36;98974.62;;;6.51;100.00
41467;BME280;72625;53.700;19.958;2023-12-20T05:03:39;98973.13;;;6.49;100.00
41467;BME280;72625;53.700;19.958;2023-12-20T05:08:43;98974.58;;;6.47;100.00
41467;BME280;72625;53.700;19.958;2023-12-20T05:13:47;98972.23;;;6.47;100.00
41467;BME280;72625;53.700;19.958;2023-12-20T05:18:53;98974.66;;;6.47;100.00
41467;BME280;72625;53.700;19.958;2023-12-20T05:23:56;98979.11;;;6.47;100.00
41467;BME280;72625;53.700;19.958;2023-12-20T05:29:00;98978.02;;;6.45;100.00
41467;BME280;72625;53.700;19.958;2023-12-20T05:34:03;98976.52;;;6.41;100.00
41467;BME280;72625;53.700;19.958;2023-12-20T05:39:07;98974.33;;;6.38;100.00
41467;BME280;72625;53.700;19.958;2023-12-20T05:44:11;98971.17;;;6.37;100.00
41467;BME280;72625;53.700;19.958;2023-12-20T05:49:14;98972.69;;;6.31;100.00
41467;BME280;72625;53.700;19.958;2023-12-20T05:54:17;98977.81;;;6.22;100.00
41467;BME280;72625;53.700;19.958;2023-12-20T05:59:21;98973.34;;;6.25;100.00
41467;BME280;72625;53.700;19.958;2023-12-20T06:04:24;98971.92;;;6.26;100.00
41467;BME280;72625;53.700;19.958;2023-12-20T06:09:34;98978.40;;;6.22;100.00
41467;BME280;72625;53.700;19.958;2023-12-20T06:14:39;98984.02;;;6.22;100.00
41467;BME280;72625;53.700;19.958;2023-12-20T06:19:43;98984.66;;;6.13;100.00
41467;BME280;72625;53.700;19.958;2023-12-20T06:24:48;98983.05;;;5.91;100.00
41467;BME280;72625;53.700;19.958;2023-12-20T06:29:51;98990.52;;;5.75;100.00
41467;BME280;72625;53.700;19.958;2023-12-20T06:34:55;98991.60;;;5.65;100.00
41467;BME280;72625;53.700;19.958;2023-12-20T06:39:58;98986.27;;;5.60;100.00
41467;BME280;72625;53.700;19.958;2023-12-20T06:45:02;98979.49;;;5.53;100.00
41467;BME280;72625;53.700;19.958;2023-12-20T06:50:05;98978.42;;;5.46;100.00
41467;BME280;72625;53.700;19.958;2023-12-20T06:55:11;98981.33;;;5.42;100.00
41467;BME280;72625;53.700;19.958;2023-12-20T07:00:15;98981.14;;;5.40;100.00
41467;BME280;72625;53.700;19.958;2023-12-20T07:05:19;98986.77;;;5.39;100.00
41467;BME280;72625;53.700;19.958;2023-12-20T07:10:23;98988.90;;;5.37;100.00
41467;BME280;72625;53.700;19.958;2023-12-20T07:15:27;98984.86;;;5.31;100.00
41467;BME280;72625;53.700;19.958;2023-12-20T07:20:32;98997.86;;;5.28;100.00
41467;BME280;72625;53.700;19.958;2023-12-20T07:25:35;99008.84;;;5.27;100.00
41467;BME280;72625;53.700;19.958;2023-12-20T07:30:39;99007.92;;;5.28;100.00
41467;BME280;72625;53.700;19.958;2023-12-20T07:35:43;99000.77;;;5.28;100.00
41467;BME280;72625;53.700;19.958;2023-12-20T07:40:48;98997.49;;;5.26;100.00
41467;BME280;72625;53.700;19.958;2023-12-20T07:45:52;98998.23;;;5.20;100.00
41467;BME280;72625;53.700;19.958;2023-12-20T07:50:59;98994.20;;;5.12;100.00
41467;BME280;72625;53.700;19.958;2023-12-20T07:56:16;98987.92;;;5.08;100.00
41467;BME280;72625;53.700;19.958;2023-12-20T08:01:20;98978.83;;;5.03;100.00
41467;BME280;72625;53.700;19.958;2023-12-20T08:06:25;98978.11;;;4.99;100.00
41467;BME280;72625;53.700;19.958;2023-12-20T08:11:29;98967.16;;;4.96;100.00
41467;BME280;72625;53.700;19.958;2023-12-20T08:16:35;98967.34;;;4.97;100.00
41467;BME280;72625;53.700;19.958;2023-12-20T08:21:41;98964.47;;;4.95;100.00
41467;BME280;72625;53.700;19.958;2023-12-20T08:26:45;98964.02;;;4.92;100.00
41467;BME280;72625;53.700;19.958;2023-12-20T08:31:53;98959.79;;;4.95;100.00
41467;BME280;72625;53.700;19.958;2023-12-20T08:36:58;98958.91;;;5.06;100.00
41467;BME280;72625;53.700;19.958;2023-12-20T08:42:01;98963.83;;;5.14;100.00
41467;BME280;72625;53.700;19.958;2023-12-20T08:47:05;98965.48;;;5.22;100.00
41467;BME280;72625;53.700;19.958;2023-12-20T08:52:08;98972.78;;;5.36;100.00
41467;BME280;72625;53.700;19.958;2023-12-20T08:57:12;98974.33;;;5.47;100.00
41467;BME280;72625;53.700;19.958;2023-12-20T09:02:16;98972.92;;;5.49;100.00
41467;BME280;72625;53.700;19.958;2023-12-20T09:12:26;98974.59;;;5.48;100.00
41467;BME280;72625;53.700;19.958;2023-12-20T09:17:30;98974.34;;;5.50;100.00
41467;BME280;72625;53.700;19.958;2023-12-20T09:22:35;98980.28;;;5.51;100.00
41467;BME280;72625;53.700;19.958;2023-12-20T09:27:39;98975.02;;;5.57;100.00
41467;BME280;72625;53.700;19.958;2023-12-20T09:32:42;98969.85;;;5.65;100.00
41467;BME280;72625;53.700;19.958;2023-12-20T09:37:49;98963.77;;;5.68;100.00
41467;BME280;72625;53.700;19.958;2023-12-20T09:42:57;98952.35;;;5.68;100.00
41467;BME280;72625;53.700;19.958;2023-12-20T09:48:03;98940.66;;;5.61;100.00
41467;BME280;72625;53.700;19.958;2023-12-20T09:53:08;98920.24;;;5.47;100.00
41467;BME280;72625;53.700;19.958;2023-12-20T09:58:12;98914.09;;;5.35;100.00
41467;BME280;72625;53.700;19.958;2023-12-20T10:03:16;98911.56;;;5.29;100.00
41467;BME280;72625;53.700;19.958;2023-12-20T10:08:21;98911.88;;;5.22;100.00
41467;BME280;72625;53.700;19.958;2023-12-20T10:13:28;98911.58;;;5.24;100.00
41467;BME280;72625;53.700;19.958;2023-12-20T10:18:32;98905.08;;;5.38;100.00
41467;BME280;72625;53.700;19.958;2023-12-20T10:23:41;98897.31;;;5.39;100.00
41467;BME280;72625;53.700;19.958;2023-12-20T10:28:45;98887.93;;;5.39;100.00
41467;BME280;72625;53.700;19.958;2023-12-20T10:33:48;98880.66;;;5.46;100.00
41467;BME280;72625;53.700;19.958;2023-12-20T10:38:54;98875.33;;;5.60;100.00
41467;BME280;72625;53.700;19.958;2023-12-20T10:44:01;98871.02;;;5.70;100.00
41467;BME280;72625;53.700;19.958;2023-12-20T10:49:05;98873.16;;;5.79;100.00
41467;BME280;72625;53.700;19.958;2023-12-20T10:54:10;98870.02;;;5.89;100.00
41467;BME280;72625;53.700;19.958;2023-12-20T10:59:17;98872.02;;;5.94;100.00
41467;BME280;72625;53.700;19.958;2023-12-20T11:09:58;98870.45;;;5.98;100.00
41467;BME280;72625;53.700;19.958;2023-12-20T11:15:04;98856.95;;;5.91;100.00
41467;BME280;72625;53.700;19.958;2023-12-20T11:20:09;98845.08;;;5.93;100.00
41467;BME280;72625;53.700;19.958;2023-12-20T11:25:14;98839.63;;;5.93;100.00
41467;BME280;72625;53.700;19.958;2023-12-20T11:30:20;98835.98;;;5.91;100.00
41467;BME280;72625;53.700;19.958;2023-12-20T11:35:23;98824.36;;;5.96;100.00
41467;BME280;72625;53.700;19.958;2023-12-20T11:40:28;98799.05;;;5.98;100.00
41467;BME280;72625;53.700;19.958;2023-12-20T11:45:35;98784.26;;;5.96;100.00
41467;BME280;72625;53.700;19.958;2023-12-20T11:50:39;98774.71;;;5.93;100.00
41467;BME280;72625;53.700;19.958;2023-12-20T11:55:43;98769.16;;;5.89;100.00
41467;BME280;72625;53.700;19.958;2023-12-20T12:00:49;98760.77;;;5.82;99.85
41467;BME280;72625;53.700;19.958;2023-12-20T12:05:53;98748.59;;;5.74;98.77
41467;BME280;72625;53.700;19.958;2023-12-20T12:10:56;98737.80;;;5.77;99.89
41467;BME280;72625;53.700;19.958;2023-12-20T12:16:00;98733.43;;;5.86;99.97
41467;BME280;72625;53.700;19.958;2023-12-20T12:21:03;98723.23;;;5.80;99.53
41467;BME280;72625;53.700;19.958;2023-12-20T12:26:17;98708.58;;;5.72;98.98
41467;BME280;72625;53.700;19.958;2023-12-20T12:31:20;98698.92;;;5.74;99.88
41467;BME280;72625;53.700;19.958;2023-12-20T12:36:24;98685.76;;;5.71;99.73
41467;BME280;72625;53.700;19.958;2023-12-20T12:41:29;98680.09;;;5.71;100.00
41467;BME280;72625;53.700;19.958;2023-12-20T12:46:32;98665.08;;;5.65;100.00
41467;BME280;72625;53.700;19.958;2023-12-20T12:51:36;98662.73;;;5.62;100.00
41467;BME280;72625;53.700;19.958;2023-12-20T12:56:39;98656.74;;;5.56;100.00
41467;BME280;72625;53.700;19.958;2023-12-20T13:01:43;98653.05;;;5.50;100.00
41467;BME280;72625;53.700;19.958;2023-12-20T13:06:47;98641.89;;;5.38;100.00
41467;BME280;72625;53.700;19.958;2023-12-20T13:11:50;98636.58;;;5.28;100.00
41467;BME280;72625;53.700;19.958;2023-12-20T13:16:58;98631.34;;;5.19;100.00
41467;BME280;72625;53.700;19.958;2023-12-20T13:22:04;98638.48;;;5.17;100.00
41467;BME280;72625;53.700;19.958;2023-12-20T13:27:10;98631.41;;;5.13;100.00
41467;BME280;72625;53.700;19.958;2023-12-20T13:32:13;98635.34;;;5.10;100.00
41467;BME280;72625;53.700;19.958;2023-12-20T13:37:17;98623.08;;;5.07;100.00
41467;BME280;72625;53.700;19.958;2023-12-20T13:42:20;98620.03;;;5.04;100.00
41467;BME280;72625;53.700;19.958;2023-12-20T13:47:24;98609.42;;;5.01;100.00
41467;BME280;72625;53.700;19.958;2023-12-20T13:52:28;98604.84;;;5.00;100.00
41467;BME280;72625;53.700;19.958;2023-12-20T13:57:31;98603.27;;;5.02;100.00
41467;BME280;72625;53.700;19.958;2023-12-20T14:02:39;98589.98;;;5.01;100.00
41467;BME280;72625;53.700;19.958;2023-12-20T14:07:43;98582.45;;;5.02;100.00
41467;BME280;72625;53.700;19.958;2023-12-20T14:12:50;98583.02;;;5.04;100.00
41467;BME280;72625;53.700;19.958;2023-12-20T14:17:54;98578.46;;;5.04;100.00
41467;BME280;72625;53.700;19.958;2023-12-20T14:22:58;98569.13;;;5.01;100.00
41467;BME280;72625;53.700;19.958;2023-12-20T14:28:01;98563.43;;;5.02;100.00
41467;BME280;72625;53.700;19.958;2023-12-20T14:33:05;98565.23;;;5.04;100.00
41467;BME280;72625;53.700;19.958;2023-12-20T14:38:08;98562.20;;;5.07;100.00
41467;BME280;72625;53.700;19.958;2023-12-20T14:43:11;98564.06;;;5.10;100.00
41467;BME280;72625;53.700;19.958;2023-12-20T14:48:15;98561.91;;;5.12;100.00
41467;BME280;72625;53.700;19.958;2023-12-20T14:53:19;98557.56;;;5.10;100.00
41467;BME280;72625;53.700;19.958;2023-12-20T14:58:25;98550.15;;;5.14;100.00
41467;BME280;72625;53.700;19.958;2023-12-20T15:03:29;98549.63;;;5.18;100.00
41467;BME280;72625;53.700;19.958;2023-12-20T15:08:43;98540.17;;;5.20;100.00
41467;BME280;72625;53.700;19.958;2023-12-20T15:13:46;98530.97;;;5.18;100.00
41467;BME280;72625;53.700;19.958;2023-12-20T15:18:57;98524.21;;;5.18;100.00
41467;BME280;72625;53.700;19.958;2023-12-20T15:24:01;98521.84;;;5.15;100.00
41467;BME280;72625;53.700;19.958;2023-12-20T15:29:17;98509.30;;;5.14;100.00
41467;BME280;72625;53.700;19.958;2023-12-20T15:34:21;98506.45;;;5.13;100.00
41467;BME280;72625;53.700;19.958;2023-12-20T15:39:25;98498.52;;;5.13;100.00
41467;BME280;72625;53.700;19.958;2023-12-20T15:44:28;98493.91;;;5.11;100.00
41467;BME280;72625;53.700;19.958;2023-12-20T15:49:32;98484.75;;;5.12;100.00
41467;BME280;72625;53.700;19.958;2023-12-20T15:54:36;98486.66;;;5.13;100.00
41467;BME280;72625;53.700;19.958;2023-12-20T15:59:42;98476.98;;;5.15;100.00
41467;BME280;72625;53.700;19.958;2023-12-20T16:04:45;98468.51;;;5.16;100.00
41467;BME280;72625;53.700;19.958;2023-12-20T16:09:49;98458.23;;;5.13;100.00
41467;BME280;72625;53.700;19.958;2023-12-20T16:14:53;98457.26;;;5.14;100.00
41467;BME280;72625;53.700;19.958;2023-12-20T16:19:57;98439.44;;;5.16;100.00
41467;BME280;72625;53.700;19.958;2023-12-20T16:25:01;98431.70;;;5.17;100.00
41467;BME280;72625;53.700;19.958;2023-12-20T16:30:05;98430.73;;;5.18;100.00
41467;BME280;72625;53.700;19.958;2023-12-20T16:35:13;98421.55;;;5.14;100.00
41467;BME280;72625;53.700;19.958;2023-12-20T16:40:17;98415.55;;;5.14;100.00
41467;BME280;72625;53.700;19.958;2023-12-20T16:45:31;98410.90;;;5.16;100.00
41467;BME280;72625;53.700;19.958;2023-12-20T16:50:34;98399.69;;;5.19;100.00
41467;BME280;72625;53.700;19.958;2023-12-20T16:55:46;98392.36;;;5.20;100.00
41467;BME280;72625;53.700;19.958;2023-12-20T17:01:10;98379.80;;;5.25;100.00
41467;BME280;72625;53.700;19.958;2023-12-20T17:06:19;98376.86;;;5.24;100.00
41467;BME280;72625;53.700;19.958;2023-12-20T17:11:29;98370.64;;;5.23;100.00
41467;BME280;72625;53.700;19.958;2023-12-20T17:16:32;98358.29;;;5.15;100.00
41467;BME280;72625;53.700;19.958;2023-12-20T17:21:37;98347.70;;;5.06;100.00
41467;BME280;72625;53.700;19.958;2023-12-20T17:26:40;98339.71;;;5.02;100.00
41467;BME280;72625;53.700;19.958;2023-12-20T17:31:45;98339.95;;;4.98;100.00
41467;BME280;72625;53.700;19.958;2023-12-20T17:36:48;98349.83;;;4.95;100.00
41467;BME280;72625;53.700;19.958;2023-12-20T17:41:58;98349.78;;;4.87;100.00
41467;BME280;72625;53.700;19.958;2023-12-20T17:47:02;98352.07;;;4.75;100.00
41467;BME280;72625;53.700;19.958;2023-12-20T17:52:05;98354.81;;;4.68;100.00
41467;BME280;72625;53.700;19.958;2023-12-20T17:57:14;98350.91;;;4.60;100.00
41467;BME280;72625;53.700;19.958;2023-12-20T18:02:17;98346.23;;;4.57;100.00
41467;BME280;72625;53.700;19.958;2023-12-20T18:07:22;98348.80;;;4.61;100.00
41467;BME280;72625;53.700;19.958;2023-12-20T18:12:28;98355.19;;;4.66;100.00
41467;BME280;72625;53.700;19.958;2023-12-20T18:17:32;98364.48;;;4.75;100.00
41467;BME280;72625;53.700;19.958;2023-12-20T18:22:36;98361.99;;;4.80;100.00
41467;BME280;72625;53.700;19.958;2023-12-20T18:27:45;98379.04;;;4.84;100.00
41467;BME280;72625;53.700;19.958;2023-12-20T18:32:56;98387.48;;;4.88;100.00
41467;BME280;72625;53.700;19.958;2023-12-20T18:38:00;98385.22;;;4.86;100.00
41467;BME280;72625;53.700;19.958;2023-12-20T18:43:03;98384.30;;;4.85;100.00
41467;BME280;72625;53.700;19.958;2023-12-20T18:48:07;98402.00;;;4.82;100.00
41467;BME280;72625;53.700;19.958;2023-12-20T18:53:16;98410.66;;;4.81;100.00
41467;BME280;72625;53.700;19.958;2023-12-20T18:58:25;98413.82;;;4.80;100.00
41467;BME280;72625;53.700;19.958;2023-12-20T19:03:38;98422.02;;;4.83;100.00
41467;BME280;72625;53.700;19.958;2023-12-20T19:08:47;98426.08;;;4.83;100.00
41467;BME280;72625;53.700;19.958;2023-12-20T19:13:55;98425.70;;;4.79;100.00
41467;BME280;72625;53.700;19.958;2023-12-20T19:19:01;98430.31;;;4.75;100.00
41467;BME280;72625;53.700;19.958;2023-12-20T19:24:09;98435.92;;;4.69;100.00
41467;BME280;72625;53.700;19.958;2023-12-20T19:29:16;98440.09;;;4.65;100.00
41467;BME280;72625;53.700;19.958;2023-12-20T19:34:19;98433.35;;;4.60;100.00
41467;BME280;72625;53.700;19.958;2023-12-20T19:39:25;98433.89;;;4.51;100.00
41467;BME280;72625;53.700;19.958;2023-12-20T19:44:37;98435.58;;;4.48;100.00
41467;BME280;72625;53.700;19.958;2023-12-20T19:49:49;98435.59;;;4.46;100.00
41467;BME280;72625;53.700;19.958;2023-12-20T19:54:57;98436.92;;;4.46;99.91
41467;BME280;72625;53.700;19.958;2023-12-20T20:00:05;98446.52;;;4.45;99.61
41467;BME280;72625;53.700;19.958;2023-12-20T20:05:12;98450.77;;;4.45;99.37
41467;BME280;72625;53.700;19.958;2023-12-20T20:10:18;98450.06;;;4.48;99.51
41467;BME280;72625;53.700;19.958;2023-12-20T20:15:27;98453.25;;;4.47;99.26
41467;BME280;72625;53.700;19.958;2023-12-20T20:20:47;98450.38;;;4.47;99.27
41467;BME280;72625;53.700;19.958;2023-12-20T20:26:02;98450.45;;;4.45;98.32
41467;BME280;72625;53.700;19.958;2023-12-20T20:31:12;98449.42;;;4.49;98.81
41467;BME280;72625;53.700;19.958;2023-12-20T20:36:24;98454.00;;;4.52;99.66
41467;BME280;72625;53.700;19.958;2023-12-20T20:41:27;98452.33;;;4.53;99.20
41467;BME280;72625;53.700;19.958;2023-12-20T20:46:31;98455.98;;;4.52;98.30
41467;BME280;72625;53.700;19.958;2023-12-20T20:51:35;98463.64;;;4.51;98.41
41467;BME280;72625;53.700;19.958;2023-12-20T20:56:38;98464.73;;;4.51;98.60
41467;BME280;72625;53.700;19.958;2023-12-20T21:01:41;98469.89;;;4.44;97.88
41467;BME280;72625;53.700;19.958;2023-12-20T21:06:46;98474.54;;;4.39;97.65
41467;BME280;72625;53.700;19.958;2023-12-20T21:11:51;98474.05;;;4.39;98.39
41467;BME280;72625;53.700;19.958;2023-12-20T21:16:57;98474.11;;;4.33;98.29
41467;BME280;72625;53.700;19.958;2023-12-20T21:22:08;98480.31;;;4.25;98.41
41467;BME280;72625;53.700;19.958;2023-12-20T21:27:12;98480.67;;;4.23;98.89
41467;BME280;72625;53.700;19.958;2023-12-20T21:32:15;98481.52;;;4.15;98.95
41467;BME280;72625;53.700;19.958;2023-12-20T21:37:28;98478.59;;;4.09;99.22
41467;BME280;72625;53.700;19.958;2023-12-20T21:42:40;98483.57;;;4.06;99.53
41467;BME280;72625;53.700;19.958;2023-12-20T21:47:53;98481.73;;;4.04;99.30
41467;BME280;72625;53.700;19.958;2023-12-20T21:52:56;98477.70;;;4.01;98.98
41467;BME280;72625;53.700;19.958;2023-12-20T21:58:01;98474.19;;;3.99;98.83
41467;BME280;72625;53.700;19.958;2023-12-20T22:03:10;98476.27;;;3.94;98.63
41467;BME280;72625;53.700;19.958;2023-12-20T22:08:46;98481.76;;;3.92;99.09
41467;BME280;72625;53.700;19.958;2023-12-20T22:13:59;98477.08;;;3.89;99.45
41467;BME280;72625;53.700;19.958;2023-12-20T22:19:03;98474.02;;;3.89;99.29
41467;BME280;72625;53.700;19.958;2023-12-20T22:24:07;98480.66;;;3.89;98.78
41467;BME280;72625;53.700;19.958;2023-12-20T22:29:10;98480.83;;;3.90;98.58
41467;BME280;72625;53.700;19.958;2023-12-20T22:34:13;98491.23;;;3.92;98.46
41467;BME280;72625;53.700;19.958;2023-12-20T22:39:17;98490.88;;;3.92;98.25
41467;BME280;72625;53.700;19.958;2023-12-20T22:44:21;98476.10;;;3.91;98.08
41467;BME280;72625;53.700;19.958;2023-12-20T22:49:24;98471.57;;;3.90;97.84
41467;BME280;72625;53.700;19.958;2023-12-20T22:54:28;98465.24;;;3.89;97.65
41467;BME280;72625;53.700;19.958;2023-12-20T22:59:31;98468.29;;;3.84;97.20
41467;BME280;72625;53.700;19.958;2023-12-20T23:04:34;98464.33;;;3.82;97.34
41467;BME280;72625;53.700;19.958;2023-12-20T23:09:40;98459.02;;;3.80;96.36
41467;BME280;72625;53.700;19.958;2023-12-20T23:14:44;98464.35;;;3.77;96.78
41467;BME280;72625;53.700;19.958;2023-12-20T23:19:50;98461.38;;;3.73;96.51
41467;BME280;72625;53.700;19.958;2023-12-20T23:24:57;98465.61;;;3.63;96.01
41467;BME280;72625;53.700;19.958;2023-12-20T23:30:00;98462.77;;;3.57;95.34
41467;BME280;72625;53.700;19.958;2023-12-20T23:35:04;98474.97;;;3.56;95.90
41467;BME280;72625;53.700;19.958;2023-12-20T23:40:18;98470.46;;;3.56;95.67
41467;BME280;72625;53.700;19.958;2023-12-20T23:45:21;98470.41;;;3.54;95.72
41467;BME280;72625;53.700;19.958;2023-12-20T23:50:25;98462.94;;;3.47;96.03
41467;BME280;72625;53.700;19.958;2023-12-20T23:55:28;98460.55;;;3.45;96.34
